Time;durP1;ratioP1;P1;durP2;ratioP2;P2;SDS_P1;SDS_P2;PMS_P1;PMS_P2;Temp;Humidity;BMP_temperature;BMP_pressure;BME280_temperature;BME280_humidity;BME280_pressure;Samples;Min_cycle;Max_cycle;Signal;HPM_P1;HPM_P2
2023/03/17 00:02:19;;;;;;;9.40;5.47;;;;;;;-141.97;81.11;47720.91;5012432;28;20832;-87
2023/03/17 00:04:44;;;;;;;12.33;6.43;;;;;;;-141.97;80.88;47734.34;5012085;28;20642;-87
2023/03/17 00:07:15;;;;;;;9.17;5.53;;;;;;;-141.97;81.51;47530.59;5016872;28;20158;-86
2023/03/17 00:09:41;;;;;;;12.20;6.43;;;;;;;-141.97;81.38;47649.78;5025817;28;20175;-87
2023/03/17 00:12:10;;;;;;;12.43;6.77;;;;;;;-141.97;81.60;47640.16;5030338;28;20454;-87
2023/03/17 00:14:36;;;;;;;11.70;5.93;;;;;;;-141.97;81.94;47565.22;5031627;28;20535;-87
2023/03/17 00:17:01;;;;;;;12.30;6.47;;;;;;;-141.97;81.81;47694.00;5015039;28;20504;-87
2023/03/17 00:19:33;;;;;;;9.70;5.33;;;;;;;-141.97;82.08;47559.44;5011863;28;20260;-87
2023/03/17 00:21:59;;;;;;;11.07;5.90;;;;;;;-141.97;82.10;47692.06;5026766;28;20187;-87
2023/03/17 00:24:25;;;;;;;10.57;4.73;;;;;;;-141.97;82.77;47519.06;5010961;28;20490;-86
2023/03/17 00:26:50;;;;;;;12.77;5.60;;;;;;;-141.97;82.58;47582.50;5011173;28;20443;-87
2023/03/17 00:29:16;;;;;;;12.87;6.57;;;;;;;-141.97;81.89;47574.81;5012022;28;20301;-87
2023/03/17 00:31:44;;;;;;;12.83;7.27;;;;;;;-141.97;82.08;47688.22;5011909;28;20166;-87
2023/03/17 00:34:17;;;;;;;12.13;6.87;;;;;;;-141.97;82.47;47763.19;5011061;28;20619;-86
2023/03/17 00:36:46;;;;;;;12.07;6.13;;;;;;;-141.97;82.95;47628.63;5011850;28;20424;-87
2023/03/17 00:39:13;;;;;;;10.43;5.67;;;;;;;-141.97;83.28;47669.00;5011032;28;20404;-87
2023/03/17 00:41:39;;;;;;;7.60;4.43;;;;;;;-141.97;83.54;47742.03;5010428;28;20891;-86
2023/03/17 00:44:04;;;;;;;10.67;5.90;;;;;;;-141.97;83.86;47555.59;5011511;28;20406;-86
2023/03/17 00:46:37;;;;;;;11.53;6.67;;;;;;;-141.97;83.51;47630.56;5011607;28;20657;-86
2023/03/17 00:49:23;;;;;;;11.63;6.47;;;;;;;-141.97;83.20;47711.28;5011417;28;20166;-86
2023/03/17 00:51:50;;;;;;;10.47;5.50;;;;;;;-141.97;83.78;47657.47;5011450;28;20875;-86
2023/03/17 00:54:17;;;;;;;11.23;6.23;;;;;;;-141.97;84.10;47680.53;5046378;28;20425;-86
2023/03/17 00:56:43;;;;;;;12.13;6.90;;;;;;;-141.97;83.76;47684.38;5015062;28;20890;-87
2023/03/17 00:59:20;;;;;;;11.23;6.23;;;;;;;-141.97;83.09;47680.53;5015232;28;20521;-86
2023/03/17 01:01:46;;;;;;;12.13;7.57;;;;;;;-141.97;82.92;47642.09;5015072;28;20531;-87
2023/03/17 01:04:12;;;;;;;8.77;4.43;;;;;;;-141.97;82.93;47530.59;5015528;28;20409;-86
2023/03/17 01:06:38;;;;;;;9.63;5.70;;;;;;;-141.97;83.15;47722.81;5015972;28;20411;-87
2023/03/17 01:09:03;;;;;;;10.00;5.47;;;;;;;-141.97;82.88;47753.56;5015988;28;20166;-87
2023/03/17 01:11:29;;;;;;;10.83;6.00;;;;;;;-141.97;83.01;47484.47;5046562;28;20571;-87
2023/03/17 01:13:55;;;;;;;7.67;4.90;;;;;;;-141.97;82.90;47553.69;5015305;28;20630;-87
2023/03/17 01:16:21;;;;;;;8.87;5.03;;;;;;;-141.97;82.36;47546.00;5015253;28;20173;-86
2023/03/17 01:18:47;;;;;;;9.77;5.40;;;;;;;-141.97;82.13;47569.06;5029870;28;21494;-86
2023/03/17 01:21:12;;;;;;;10.87;6.03;;;;;;;-141.97;81.89;47730.50;5047410;28;20544;-87
2023/03/17 01:23:38;;;;;;;9.87;5.27;;;;;;;-141.97;81.46;47742.03;5015446;28;20158;-86
2023/03/17 01:26:05;;;;;;;8.73;5.23;;;;;;;-141.97;81.18;47572.91;5014968;28;20638;-86
2023/03/17 01:28:31;;;;;;;7.83;4.47;;;;;;;-141.97;81.14;47563.28;5015840;28;20161;-86
2023/03/17 01:30:56;;;;;;;8.27;4.87;;;;;;;-141.97;80.86;47747.81;5014238;28;20943;-87
2023/03/17 01:33:22;;;;;;;8.33;5.23;;;;;;;-141.97;80.35;47745.88;5014824;28;20478;-86
2023/03/17 01:35:49;;;;;;;9.70;5.60;;;;;;;-141.97;80.34;47778.56;5046238;28;20207;-86
2023/03/17 01:38:14;;;;;;;8.50;5.03;;;;;;;-141.97;79.95;47586.34;5014597;28;20169;-86
2023/03/17 01:40:50;;;;;;;8.50;5.20;;;;;;;-141.97;79.58;47569.06;5014733;28;20567;-86
2023/03/17 01:43:18;;;;;;;8.67;5.10;;;;;;;-141.97;78.98;47678.63;5046109;28;20250;-86
2023/03/17 01:46:05;;;;;;;8.17;4.97;;;;;;;-141.97;79.14;47661.31;5012910;28;20792;-86
2023/03/17 01:48:36;;;;;;;7.57;4.20;;;;;;;-141.97;78.77;47672.84;5046685;28;20940;-86
2023/03/17 01:51:05;;;;;;;9.27;5.37;;;;;;;-141.97;78.86;47720.91;5046667;28;20418;-86
2023/03/17 01:53:32;;;;;;;8.67;5.17;;;;;;;-141.97;78.94;47688.22;5014635;28;20408;-86
2023/03/17 01:55:58;;;;;;;8.43;4.80;;;;;;;-141.97;78.37;47488.31;5014827;28;20412;-86
2023/03/17 01:58:25;;;;;;;7.80;4.53;;;;;;;-141.97;78.58;47584.44;5046335;28;20424;-86
2023/03/17 02:00:50;;;;;;;8.03;3.87;;;;;;;-141.97;78.69;47582.50;5014400;28;20586;-86
2023/03/17 02:03:16;;;;;;;7.90;4.70;;;;;;;-141.97;78.73;47538.28;5014496;28;20401;-86
2023/03/17 02:05:43;;;;;;;7.00;4.63;;;;;;;-141.97;78.88;47592.13;5012104;28;20177;-86
2023/03/17 02:08:13;;;;;;;7.77;4.47;;;;;;;-141.97;78.94;47697.84;5046460;28;20413;-86
2023/03/17 02:10:40;;;;;;;6.03;3.77;;;;;;;-141.97;78.80;47567.13;5014249;28;20406;-86
2023/03/17 02:13:09;;;;;;;7.73;4.30;;;;;;;-141.97;78.35;47672.84;5014185;28;20405;-86
2023/03/17 02:15:40;;;;;;;6.70;4.50;;;;;;;-141.97;78.47;47749.72;5013817;28;20768;-86
2023/03/17 02:18:07;;;;;;;7.03;4.40;;;;;;;-141.97;78.02;47703.59;5013744;28;20431;-86
2023/03/17 02:20:33;;;;;;;5.93;3.80;;;;;;;-141.97;78.11;47684.38;5013916;28;20473;-86
2023/03/17 02:22:59;;;;;;;6.47;4.33;;;;;;;-141.97;78.21;47530.59;5014661;28;20463;-86
2023/03/17 02:25:29;;;;;;;5.93;3.67;;;;;;;-141.97;77.58;47565.22;5014480;28;20410;-86
2023/03/17 02:28:00;;;;;;;6.17;3.87;;;;;;;-141.97;77.96;47718.97;5045746;28;20420;-86
2023/03/17 02:30:27;;;;;;;6.50;3.90;;;;;;;-141.97;77.59;47570.97;5013980;28;20393;-86
2023/03/17 02:32:52;;;;;;;6.80;4.30;;;;;;;-141.97;77.44;47507.53;5046043;28;20540;-87
2023/03/17 02:35:19;;;;;;;6.87;3.90;;;;;;;-141.97;77.63;47590.19;5013484;28;20485;-85
2023/03/17 02:37:45;;;;;;;5.93;3.60;;;;;;;-141.97;77.26;47734.34;5045256;28;20576;-86
2023/03/17 02:40:13;;;;;;;6.70;3.77;;;;;;;-141.97;76.86;47738.19;5013324;28;20543;-86
2023/03/17 02:42:38;;;;;;;6.37;4.20;;;;;;;-141.97;76.69;47711.28;5013632;28;20408;-86
2023/03/17 02:45:10;;;;;;;5.70;3.70;;;;;;;-141.97;76.65;47743.97;5013548;28;20424;-87
2023/03/17 02:47:35;;;;;;;5.33;3.53;;;;;;;-141.97;77.01;47567.13;5013695;28;20166;-86
2023/03/17 02:50:01;;;;;;;6.43;3.30;;;;;;;-141.97;77.03;47736.28;5015803;28;20406;-86
2023/03/17 02:52:27;;;;;;;6.87;3.43;;;;;;;-141.97;77.08;47711.28;5031506;28;20180;-86
2023/03/17 02:54:52;;;;;;;5.40;3.73;;;;;;;-141.97;76.80;47730.50;5014382;28;20166;-86
2023/03/17 02:57:17;;;;;;;5.77;3.70;;;;;;;-141.97;76.67;47603.66;5045327;28;20330;-87
2023/03/17 02:59:43;;;;;;;5.77;3.70;;;;;;;-141.97;76.78;47688.22;5013194;28;20177;-86
2023/03/17 03:02:09;;;;;;;5.90;3.53;;;;;;;-141.97;76.68;47561.38;5044416;28;20285;-87
2023/03/17 03:04:34;;;;;;;6.70;3.57;;;;;;;-141.97;76.13;47717.06;5013066;28;20254;-87
2023/03/17 03:07:00;;;;;;;5.57;3.40;;;;;;;-141.97;75.88;47734.34;5011837;28;20173;-87
2023/03/17 03:09:26;;;;;;;5.33;3.50;;;;;;;-141.97;75.14;47722.81;5011476;28;20197;-86
2023/03/17 03:11:52;;;;;;;4.90;3.23;;;;;;;-141.97;74.42;47674.78;5012688;28;20170;-86
2023/03/17 03:14:17;;;;;;;5.20;3.23;;;;;;;-141.97;75.10;47534.44;5011431;28;20634;-86
2023/03/17 03:16:43;;;;;;;5.40;3.57;;;;;;;-141.97;74.65;47574.81;5027603;28;20591;-86
2023/03/17 03:19:09;;;;;;;5.37;3.40;;;;;;;-141.97;74.46;47655.53;5044329;28;20321;-87
2023/03/17 03:21:35;;;;;;;4.83;3.20;;;;;;;-141.97;74.20;47663.22;5011595;28;20356;-86
2023/03/17 03:24:01;;;;;;;4.27;3.13;;;;;;;-141.97;74.17;47684.38;5027478;28;20182;-85
2023/03/17 03:26:27;;;;;;;4.93;3.37;;;;;;;-141.97;73.86;47572.91;5044152;28;20849;-86
2023/03/17 03:28:52;;;;;;;5.47;3.00;;;;;;;-141.97;73.91;47742.03;5044308;28;20530;-86
2023/03/17 03:31:18;;;;;;;5.60;2.87;;;;;;;-141.97;74.13;47663.22;5011506;28;20178;-86
2023/03/17 03:33:44;;;;;;;4.63;3.13;;;;;;;-141.97;73.64;47607.50;5012222;28;20186;-86
2023/03/17 03:36:10;;;;;;;4.80;3.20;;;;;;;-141.97;73.75;47726.66;5012576;28;20619;-87
2023/03/17 03:38:35;;;;;;;5.60;3.33;;;;;;;-141.97;73.25;47713.22;5012895;28;20246;-86
2023/03/17 03:41:01;;;;;;;3.90;2.77;;;;;;;-141.97;73.13;47551.75;5010834;28;20198;-87
2023/03/17 03:43:27;;;;;;;5.13;3.50;;;;;;;-141.97;73.10;47557.53;5012485;28;20167;-87
2023/03/17 03:45:53;;;;;;;5.57;3.03;;;;;;;-141.97;73.07;47695.91;5011987;28;20208;-87
2023/03/17 03:48:19;;;;;;;4.77;3.10;;;;;;;-141.97;73.17;47657.47;5044141;28;20573;-87
2023/03/17 03:50:45;;;;;;;7.50;3.27;;;;;;;-141.97;73.50;47634.41;5012567;28;20408;-87
2023/03/17 03:53:10;;;;;;;5.93;3.43;;;;;;;-141.97;72.97;47549.84;5012504;28;20406;-87
2023/03/17 03:55:36;;;;;;;5.03;2.93;;;;;;;-141.97;72.69;47630.56;5012885;28;20155;-88
2023/03/17 03:58:01;;;;;;;4.57;3.00;;;;;;;-141.97;73.17;47759.34;5012268;28;20233;-87
2023/03/17 04:00:27;;;;;;;7.00;3.60;;;;;;;-141.97;73.15;47557.53;5011186;28;20287;-87
2023/03/17 04:02:52;;;;;;;5.83;3.27;;;;;;;-141.97;73.22;47546.00;5012793;28;20213;-86
2023/03/17 04:05:18;;;;;;;5.57;3.10;;;;;;;-141.97;73.03;47605.56;5010678;28;20159;-86
2023/03/17 04:07:45;;;;;;;4.83;3.07;;;;;;;-141.97;73.16;47699.75;5012194;28;20187;-87
2023/03/17 04:10:11;;;;;;;4.67;3.40;;;;;;;-141.97;73.61;47661.31;5012138;28;20582;-86
2023/03/17 04:12:38;;;;;;;4.90;3.20;;;;;;;-141.97;73.67;47557.53;5012547;28;20917;-87
2023/03/17 04:15:04;;;;;;;5.63;3.33;;;;;;;-141.97;73.28;47663.22;5012724;28;20411;-87
2023/03/17 04:17:30;;;;;;;4.07;2.93;;;;;;;-141.97;73.59;47595.97;5012704;28;20421;-87
2023/03/17 04:19:56;;;;;;;5.87;3.20;;;;;;;-141.97;73.36;47686.31;5010929;28;20482;-87
2023/03/17 04:22:21;;;;;;;5.60;3.30;;;;;;;-141.97;73.62;47570.97;5012110;28;20193;-87
2023/03/17 04:24:47;;;;;;;5.40;3.50;;;;;;;-141.97;73.16;47718.97;5011964;28;20558;-87
2023/03/17 04:27:14;;;;;;;5.33;3.33;;;;;;;-141.97;73.09;47607.50;5010104;28;20174;-87
2023/03/17 04:29:41;;;;;;;5.70;3.20;;;;;;;-141.97;72.75;47561.38;5012109;28;20549;-87
2023/03/17 04:32:07;;;;;;;5.17;3.53;;;;;;;-141.97;72.70;47753.56;5012163;28;20401;-86
2023/03/17 04:34:32;;;;;;;5.77;3.50;;;;;;;-141.97;72.66;47586.34;5011716;28;20409;-87
2023/03/17 04:36:58;;;;;;;6.73;3.20;;;;;;;-141.97;72.39;47688.22;5012025;28;20518;-86
2023/03/17 04:39:23;;;;;;;4.60;3.30;;;;;;;-141.97;72.77;47578.66;5012054;28;20228;-87
2023/03/17 04:41:49;;;;;;;5.27;3.03;;;;;;;-141.97;72.71;47555.59;5018376;28;20197;-86
2023/03/17 04:44:14;;;;;;;6.13;3.60;;;;;;;-141.97;72.70;47757.41;5011518;28;20265;-87
2023/03/17 04:46:40;;;;;;;5.30;3.27;;;;;;;-141.97;72.09;47503.69;5012052;28;20246;-87
2023/03/17 04:49:06;;;;;;;5.63;3.40;;;;;;;-141.97;71.74;47738.19;5009993;28;20639;-87
2023/03/17 04:51:32;;;;;;;9.70;3.70;;;;;;;-141.97;72.37;47713.22;5011765;28;20501;-87
2023/03/17 04:53:57;;;;;;;5.73;3.73;;;;;;;-141.97;71.99;47653.63;5011783;28;20175;-87
2023/03/17 04:56:23;;;;;;;6.67;3.63;;;;;;;-141.97;72.14;47743.97;5011438;28;20507;-87
2023/03/17 04:58:48;;;;;;;6.93;3.87;;;;;;;-141.97;72.03;47711.28;5010671;28;20260;-87
2023/03/17 05:01:14;;;;;;;8.03;5.03;;;;;;;-141.97;71.65;47793.94;5010856;28;20325;-87
2023/03/17 05:03:39;;;;;;;10.63;6.37;;;;;;;-141.97;71.53;47793.94;5011693;28;20197;-87
2023/03/17 05:06:05;;;;;;;15.47;8.23;;;;;;;-141.97;71.73;47538.28;5011601;28;20167;-86
2023/03/17 05:08:31;;;;;;;13.83;7.40;;;;;;;-141.97;71.23;47549.84;5012690;28;20253;-87
2023/03/17 05:10:58;;;;;;;20.53;12.23;;;;;;;-141.97;71.02;47592.13;5016791;28;20498;-87
2023/03/17 05:13:25;;;;;;;12.13;6.67;;;;;;;-141.97;70.96;47588.28;5021687;28;20691;-86
2023/03/17 05:15:52;;;;;;;13.17;8.50;;;;;;;-141.97;71.02;47699.75;5025664;28;20433;-86
2023/03/17 05:18:19;;;;;;;10.90;6.40;;;;;;;-141.97;70.76;47705.53;5021655;28;20511;-86
2023/03/17 05:20:45;;;;;;;12.67;7.70;;;;;;;-141.97;70.81;47669.00;5011417;28;20520;-86
2023/03/17 05:23:11;;;;;;;14.27;7.97;;;;;;;-141.97;70.70;47553.69;5047580;28;20460;-89
2023/03/17 05:25:37;;;;;;;12.17;6.70;;;;;;;-141.97;70.82;47549.84;5031543;28;20645;-86
2023/03/17 05:28:03;;;;;;;11.20;6.60;;;;;;;-141.97;70.72;47720.91;5011541;28;20159;-87
2023/03/17 05:30:29;;;;;;;13.53;7.20;;;;;;;-141.97;70.76;47747.81;5012158;28;20451;-87
2023/03/17 05:32:54;;;;;;;24.37;13.43;;;;;;;-141.97;70.33;47730.50;5010903;28;20181;-89
2023/03/17 05:35:20;;;;;;;15.13;9.63;;;;;;;-141.97;69.99;47730.50;5026445;28;20166;-86
2023/03/17 05:37:45;;;;;;;10.50;5.83;;;;;;;-141.97;69.80;47584.44;5010372;28;20171;-87
2023/03/17 05:40:13;;;;;;;10.00;5.20;;;;;;;-141.97;69.87;47745.88;5012602;28;20177;-86
2023/03/17 05:42:39;;;;;;;10.27;5.80;;;;;;;-141.97;69.30;47711.28;5013190;28;20174;-87
2023/03/17 05:45:06;;;;;;;16.43;9.17;;;;;;;-141.97;69.26;47546.00;5014868;28;20401;-86
2023/03/17 05:47:32;;;;;;;11.30;7.73;;;;;;;-141.97;69.00;47778.56;5014267;28;20485;-86
2023/03/17 05:50:01;;;;;;;22.63;10.00;;;;;;;-141.97;69.12;47768.94;5024875;28;20433;-87
2023/03/17 05:52:27;;;;;;;23.00;11.40;;;;;;;-141.97;68.75;47542.16;5018451;28;20472;-88
2023/03/17 05:54:53;;;;;;;34.77;17.60;;;;;;;-141.97;68.22;47684.38;5013224;28;20683;-85
2023/03/17 05:57:20;;;;;;;19.00;11.33;;;;;;;-141.97;68.27;47634.41;5015065;28;20404;-87
2023/03/17 05:59:46;;;;;;;12.50;6.63;;;;;;;-141.97;67.20;47724.75;5014881;28;20405;-87
2023/03/17 06:02:12;;;;;;;11.63;5.63;;;;;;;-141.97;67.16;47692.06;5014267;28;20886;-87
2023/03/17 06:04:37;;;;;;;8.73;5.10;;;;;;;-141.97;67.22;47567.13;5029247;28;20179;-86
2023/03/17 06:07:06;;;;;;;9.50;5.37;;;;;;;-141.97;66.79;47740.13;5014340;28;20171;-86
2023/03/17 06:09:32;;;;;;;14.20;7.93;;;;;;;-141.97;66.40;47759.34;5012633;28;20177;-87
2023/03/17 06:11:58;;;;;;;13.93;8.30;;;;;;;-141.97;65.60;47615.19;5013392;28;20405;-88
2023/03/17 06:14:24;;;;;;;14.50;8.90;;;;;;;-141.97;64.94;47772.78;5012782;28;20985;-87
2023/03/17 06:16:50;;;;;;;18.03;10.13;;;;;;;-141.97;65.74;47728.59;5014386;28;20445;-88
2023/03/17 06:19:16;;;;;;;14.20;7.43;;;;;;;-141.97;65.15;47649.78;5013161;28;20477;-88
2023/03/17 06:21:41;;;;;;;10.77;6.20;;;;;;;-141.97;65.12;47569.06;5013094;28;20279;-88
2023/03/17 06:24:08;;;;;;;9.03;5.07;;;;;;;-141.97;64.57;47711.28;5013671;28;20181;-89
2023/03/17 06:26:34;;;;;;;10.10;6.20;;;;;;;-141.97;65.35;47580.59;5014864;28;20224;-88
2023/03/17 06:29:00;;;;;;;24.40;13.27;;;;;;;-141.97;64.80;47747.81;5029417;28;20496;-88
2023/03/17 06:31:26;;;;;;;19.33;10.87;;;;;;;-141.97;63.94;47565.22;5014324;28;20238;-88
2023/03/17 06:33:54;;;;;;;39.70;17.50;;;;;;;-141.97;63.68;47619.03;5013434;28;20428;-87
2023/03/17 06:36:20;;;;;;;52.63;22.00;;;;;;;-141.97;63.52;47684.38;5012803;28;20410;-88
2023/03/17 06:38:46;;;;;;;21.13;11.17;;;;;;;-141.97;62.65;47665.16;5012484;28;20432;-87
2023/03/17 06:41:11;;;;;;;13.27;7.87;;;;;;;-141.97;63.13;47570.97;5013149;28;20441;-89
2023/03/17 06:43:37;;;;;;;23.23;12.27;;;;;;;-141.97;63.45;47592.13;5013605;28;20185;-88
2023/03/17 06:46:02;;;;;;;17.43;10.00;;;;;;;-141.97;64.12;47624.78;5012403;28;20558;-88
2023/03/17 06:48:28;;;;;;;8.67;5.70;;;;;;;-141.97;64.47;47715.13;5045933;28;20187;-88
2023/03/17 06:50:54;;;;;;;9.93;5.30;;;;;;;-141.97;63.85;47595.97;5013727;28;20195;-88
2023/03/17 06:53:19;;;;;;;18.83;9.50;;;;;;;-141.97;63.77;47669.00;5012551;28;20179;-85
2023/03/17 06:55:45;;;;;;;17.83;9.27;;;;;;;-141.97;63.04;47661.31;5012082;28;20175;-88
2023/03/17 06:58:11;;;;;;;18.73;10.40;;;;;;;-141.97;63.50;47680.53;5013405;28;20619;-86
2023/03/17 07:00:38;;;;;;;12.27;6.87;;;;;;;-141.97;63.41;47703.59;5013756;28;20197;-85
2023/03/17 07:03:05;;;;;;;15.33;8.27;;;;;;;-141.97;62.58;47570.97;5011559;28;20425;-88
2023/03/17 07:05:32;;;;;;;14.43;8.47;;;;;;;-141.97;61.79;47661.31;5013541;28;20909;-89
2023/03/17 07:07:57;;;;;;;11.33;7.13;;;;;;;-141.97;62.05;47588.28;5013799;28;20483;-86
2023/03/17 07:10:23;;;;;;;10.20;6.17;;;;;;;-141.97;61.36;47657.47;5012562;28;20494;-88
2023/03/17 07:12:49;;;;;;;10.40;6.00;;;;;;;-141.97;60.04;47738.19;5045292;28;20166;-87
2023/03/17 07:15:16;;;;;;;8.10;5.40;;;;;;;-141.97;59.41;47622.88;5014288;28;20409;-87
2023/03/17 07:17:41;;;;;;;13.30;7.80;;;;;;;-141.97;59.79;47657.47;5013313;28;20167;-87
2023/03/17 07:20:08;;;;;;;8.87;5.03;;;;;;;-141.97;57.94;47676.69;5012843;28;20469;-89
2023/03/17 07:22:34;;;;;;;8.37;5.00;;;;;;;-141.97;57.03;47822.78;5013081;28;20170;-89
2023/03/17 07:24:59;;;;;;;10.30;6.37;;;;;;;-141.97;55.77;47755.50;5012906;28;20179;-86
2023/03/17 07:27:25;;;;;;;6.77;4.50;;;;;;;-141.97;54.46;47603.66;5013372;28;20197;-88
2023/03/17 07:29:51;;;;;;;8.87;5.40;;;;;;;-141.97;55.21;47772.78;5012323;28;20305;-89
2023/03/17 07:32:17;;;;;;;6.33;4.50;;;;;;;-141.97;53.00;47734.34;5015990;28;20163;-88
2023/03/17 07:34:42;;;;;;;7.50;4.83;;;;;;;-141.97;52.58;47580.59;5013765;28;20239;-87
2023/03/17 07:37:07;;;;;;;7.67;4.87;;;;;;;-141.97;51.50;47503.69;5013365;28;20175;-90
2023/03/17 07:39:35;;;;;;;6.37;4.60;;;;;;;-141.97;50.98;47542.16;5014343;28;20635;-89
2023/03/17 07:42:01;;;;;;;9.43;6.07;;;;;;;-141.97;50.92;47672.84;5013490;28;20642;-89
2023/03/17 07:44:26;;;;;;;6.90;4.77;;;;;;;-141.97;50.58;47570.97;5014998;28;20182;-89
2023/03/17 07:46:52;;;;;;;9.80;6.13;;;;;;;-141.97;50.45;47745.88;5012344;28;20626;-89
2023/03/17 07:49:18;;;;;;;12.47;6.33;;;;;;;-141.97;50.06;47776.63;5011074;28;20174;-87
2023/03/17 07:51:44;;;;;;;7.53;4.60;;;;;;;-141.97;49.89;47595.97;5027426;28;20178;-87
2023/03/17 07:54:11;;;;;;;7.83;5.00;;;;;;;-141.97;49.07;47640.16;5011911;28;20174;-88
2023/03/17 07:56:37;;;;;;;7.53;4.90;;;;;;;-141.97;47.86;47592.13;5012609;28;20167;-88
2023/03/17 07:59:02;;;;;;;12.57;5.87;;;;;;;-141.97;46.85;47730.50;5011822;28;20177;-88
2023/03/17 08:01:28;;;;;;;11.10;7.20;;;;;;;-141.97;49.63;47515.22;5010850;28;20199;-89
2023/03/17 08:03:55;;;;;;;13.47;8.17;;;;;;;-141.97;50.89;47653.63;5011736;28;20282;-87
2023/03/17 08:06:21;;;;;;;13.13;8.00;;;;;;;-141.97;50.15;47757.41;5011477;28;20570;-88
2023/03/17 08:08:47;;;;;;;12.10;6.83;;;;;;;-141.97;48.93;47772.78;5013752;28;20162;-86
2023/03/17 08:11:12;;;;;;;12.63;7.63;;;;;;;-141.97;47.14;47563.28;5012371;28;20207;-87
2023/03/17 08:13:38;;;;;;;9.00;5.90;;;;;;;-141.97;47.11;47570.97;5008428;28;20686;-87
2023/03/17 08:16:04;;;;;;;10.50;5.80;;;;;;;-141.97;46.92;47742.03;5011985;28;20185;-88
2023/03/17 08:18:29;;;;;;;7.60;4.50;;;;;;;-141.97;45.29;47665.16;5029093;28;20170;-88
2023/03/17 08:20:55;;;;;;;8.67;5.93;;;;;;;-141.97;44.46;47755.50;5029027;28;20252;-87
2023/03/17 08:23:22;;;;;;;6.63;4.40;;;;;;;-141.97;42.07;47515.22;5012649;28;20209;-89
2023/03/17 08:25:47;;;;;;;7.97;5.03;;;;;;;-141.97;42.05;47672.84;5011734;28;20170;-87
2023/03/17 08:28:14;;;;;;;8.83;4.90;;;;;;;-141.97;41.89;47576.75;5012450;28;20170;-87
2023/03/17 08:30:41;;;;;;;7.20;4.90;;;;;;;-141.97;40.59;47538.28;5012198;28;20170;-89
2023/03/17 08:33:07;;;;;;;5.87;3.60;;;;;;;-141.97;40.87;47569.06;5012822;28;20184;-88
2023/03/17 08:35:34;;;;;;;5.30;3.70;;;;;;;-141.97;41.22;47580.59;5044389;28;20178;-90
2023/03/17 08:38:00;;;;;;;5.73;3.70;;;;;;;-141.97;41.83;47565.22;5044260;28;20170;-87
2023/03/17 08:40:25;;;;;;;6.23;4.03;;;;;;;-141.97;42.84;47561.38;5012190;28;20252;-89
2023/03/17 08:42:51;;;;;;;7.50;5.13;;;;;;;-141.97;43.58;47665.16;5011817;28;20166;-89
2023/03/17 08:45:17;;;;;;;17.77;9.17;;;;;;;-141.97;44.08;47569.06;5011886;28;20178;-87
2023/03/17 08:47:43;;;;;;;9.30;6.53;;;;;;;-141.97;43.99;47584.44;5029746;28;20166;-91
2023/03/17 08:50:15;;;;;;;6.67;3.97;;;;;;;-141.97;44.14;47517.16;5014172;28;20225;-88
2023/03/17 08:52:41;;;;;;;10.37;7.67;;;;;;;-141.97;45.43;47515.22;5011850;28;20171;-88
2023/03/17 08:55:07;;;;;;;8.93;6.37;;;;;;;-141.97;45.67;47745.88;5011931;28;20530;-87
2023/03/17 08:57:36;;;;;;;7.37;4.53;;;;;;;-141.97;45.55;47772.78;5013813;28;20186;-88
2023/03/17 09:00:09;;;;;;;9.63;6.03;;;;;;;-141.97;45.43;47765.09;5012374;28;20570;-87
2023/03/17 09:02:42;;;;;;;17.17;9.73;;;;;;;-141.97;45.87;47792.03;5010763;28;20655;-88
2023/03/17 09:05:10;;;;;;;16.57;9.93;;;;;;;-141.97;45.79;47684.38;5010929;28;20179;-87
2023/03/17 09:07:36;;;;;;;29.60;14.33;;;;;;;-141.97;45.55;47534.44;5012497;28;20159;-86
2023/03/17 09:10:02;;;;;;;10.77;5.97;;;;;;;-141.97;45.86;47638.25;5012107;28;20166;-89
2023/03/17 09:12:28;;;;;;;8.53;5.37;;;;;;;-141.97;45.45;47588.28;5012329;28;20167;-87
2023/03/17 09:14:55;;;;;;;6.57;4.07;;;;;;;-141.97;45.25;47546.00;5015416;28;20197;-87
2023/03/17 09:17:21;;;;;;;6.10;4.20;;;;;;;-141.97;45.20;47655.53;5017093;28;20182;-87
2023/03/17 09:19:46;;;;;;;8.53;4.73;;;;;;;-141.97;44.91;47599.81;5015343;28;20354;-87
2023/03/17 09:22:14;;;;;;;8.57;5.50;;;;;;;-141.97;44.29;47540.22;5014618;28;20343;-88
2023/03/17 09:24:40;;;;;;;9.27;5.90;;;;;;;-141.97;43.42;47611.34;5044721;28;20248;-89
2023/03/17 09:27:05;;;;;;;7.07;4.40;;;;;;;-141.97;42.95;47749.72;5013646;28;20549;-85
2023/03/17 09:29:32;;;;;;;12.93;7.20;;;;;;;-141.97;41.38;47663.22;5045858;28;20194;-90
2023/03/17 09:31:58;;;;;;;8.53;4.93;;;;;;;-141.97;39.16;47636.31;5030962;28;20183;-90
2023/03/17 09:34:24;;;;;;;9.73;5.23;;;;;;;-141.97;38.91;47615.19;5048607;28;20175;-90
2023/03/17 09:36:49;;;;;;;8.77;4.97;;;;;;;-141.97;38.36;47465.25;5048717;28;20179;-91
2023/03/17 09:39:15;;;;;;;5.77;3.50;;;;;;;-141.97;38.00;47586.34;5016394;28;20193;-89
2023/03/17 09:41:40;;;;;;;5.80;3.40;;;;;;;-141.97;38.19;47651.69;5045132;28;20217;-89
2023/03/17 09:44:44;;;;;;;8.83;5.27;;;;;;;-141.97;38.24;47772.78;5012274;28;20205;-89
2023/03/17 09:47:42;;;;;;;4.23;3.17;;;;;;;-141.97;38.35;47742.03;5015735;28;20186;-90
2023/03/17 09:50:14;;;;;;;3.00;2.30;;;;;;;-141.97;36.38;47642.09;5044101;28;20636;-89
2023/03/17 09:52:41;;;;;;;3.30;2.60;;;;;;;-141.97;36.35;47592.13;5016928;28;20576;-90
2023/03/17 09:55:15;;;;;;;4.70;3.07;;;;;;;-141.97;36.51;47665.16;5016158;28;20179;-90
2023/03/17 09:57:51;;;;;;;4.20;3.13;;;;;;;-141.97;36.54;47505.63;5016465;28;20493;-90
2023/03/17 10:00:25;;;;;;;4.10;3.07;;;;;;;-141.97;37.25;47697.84;5016376;28;20194;-91
2023/03/17 10:02:51;;;;;;;4.87;3.10;;;;;;;-141.97;37.21;47667.06;5019877;28;20273;-90
2023/03/17 10:05:26;;;;;;;5.97;3.00;;;;;;;-141.97;36.96;47634.41;5017309;28;20194;-90
2023/03/17 10:08:04;;;;;;;3.60;3.10;;;;;;;-141.97;37.70;47653.63;5015678;28;20697;-90
2023/03/17 10:10:54;;;;;;;5.87;3.47;;;;;;;-141.97;38.05;47557.53;5015185;28;20545;-90
2023/03/17 10:13:44;;;;;;;6.30;4.10;;;;;;;-141.97;39.62;47640.16;5014930;28;20171;-91
2023/03/17 10:16:40;;;;;;;6.63;4.50;;;;;;;-141.97;39.85;47607.50;5017818;28;20199;-90
2023/03/17 10:19:20;;;;;;;5.73;4.07;;;;;;;-141.97;40.64;47642.09;5006585;28;20229;-89
2023/03/17 10:21:52;;;;;;;4.67;3.63;;;;;;;-141.97;41.30;47634.41;5014321;28;20198;-91
2023/03/17 10:24:18;;;;;;;9.17;5.00;;;;;;;-141.97;41.16;47622.88;5030502;28;20203;-91
2023/03/17 10:26:52;;;;;;;4.40;3.23;;;;;;;-141.97;41.42;47526.75;5015661;28;20575;-91
2023/03/17 10:29:22;;;;;;;5.57;3.87;;;;;;;-141.97;41.36;47588.28;4997200;28;20801;-92
2023/03/17 10:31:49;;;;;;;12.87;7.43;;;;;;;-141.97;40.14;47576.75;4997411;28;20262;-90
2023/03/17 10:34:17;;;;;;;8.13;4.60;;;;;;;-141.97;39.62;47742.03;5014024;28;20174;-90
2023/03/17 10:36:54;;;;;;;5.57;3.63;;;;;;;-141.97;39.52;47718.97;4997734;28;20588;-90
2023/03/17 10:39:22;;;;;;;4.60;3.50;;;;;;;-141.97;39.10;47732.44;4996360;28;20192;-88
2023/03/17 10:42:28;;;;;;;5.07;3.20;;;;;;;-141.97;38.72;47619.03;4997092;28;20209;-90
2023/03/17 10:45:06;;;;;;;6.13;3.47;;;;;;;-141.97;38.18;47717.06;4973558;28;20191;-91
2023/03/17 10:47:37;;;;;;;4.20;3.40;;;;;;;-141.97;38.29;47711.28;4959158;28;20176;-92
2023/03/17 10:50:27;;;;;;;5.60;3.50;;;;;;;-141.97;37.78;47665.16;4985117;28;20234;-89
2023/03/17 10:53:07;;;;;;;5.00;3.50;;;;;;;-141.97;37.17;47649.78;4977669;28;20179;-89
2023/03/17 10:55:37;;;;;;;8.70;5.67;;;;;;;-141.97;38.09;47753.56;4953867;28;20703;-89
2023/03/17 10:58:06;;;;;;;10.53;7.23;;;;;;;-141.97;38.12;47740.13;4954282;29;20203;-89
2023/03/17 11:00:35;;;;;;;4.93;3.73;;;;;;;-141.97;37.51;47549.84;4940271;29;20746;-88
2023/03/17 11:03:22;;;;;;;6.37;4.47;;;;;;;-141.97;37.37;47634.41;4971746;28;20251;-90
2023/03/17 11:06:05;;;;;;;4.77;3.20;;;;;;;-141.97;37.45;47594.03;4953550;29;20184;-88
2023/03/17 11:08:34;;;;;;;4.97;3.70;;;;;;;-141.97;37.18;47599.81;4954089;29;20546;-89
2023/03/17 11:11:04;;;;;;;4.47;3.13;;;;;;;-141.97;37.20;47622.88;4969252;28;20173;-89
2023/03/17 11:13:30;;;;;;;5.63;4.30;;;;;;;-141.97;37.11;47738.19;4970366;28;20183;-88
2023/03/17 11:16:20;;;;;;;19.10;9.87;;;;;;;-141.97;37.34;47669.00;4953140;29;20193;-89
2023/03/17 11:18:47;;;;;;;22.57;11.47;;;;;;;-141.97;37.78;47661.31;4967001;28;20267;-89